Time;durP1;ratioP1;P1;durP2;ratioP2;P2;SDS_P1;SDS_P2;PMS_P1;PMS_P2;Temp;Humidity;BMP_temperature;BMP_pressure;BME280_temperature;BME280_humidity;BME280_pressure;Samples;Min_cycle;Max_cycle;Signal;HPM_P1;HPM_P2
2021/10/29 00:00:10;;;;;;;4.88;4.13;;;;;16.80;100782.00;;;;5073041;28;20691;-81
2021/10/29 00:02:37;;;;;;;4.57;4.03;;;;;16.70;100779.00;;;;5089692;28;20190;-82
2021/10/29 00:05:05;;;;;;;6.43;3.90;;;;;16.70;100781.00;;;;5084121;28;20637;-82
2021/10/29 00:07:33;;;;;;;5.43;4.25;;;;;16.70;100772.00;;;;5068341;28;20210;-82
2021/10/29 00:10:00;;;;;;;5.07;3.88;;;;;16.70;100777.00;;;;5068195;28;20198;-81
2021/10/29 00:12:29;;;;;;;5.82;4.28;;;;;16.60;100781.00;;;;5069732;28;20657;-83
2021/10/29 00:14:56;;;;;;;6.68;4.40;;;;;16.60;100781.00;;;;5070849;28;20195;-82
2021/10/29 00:17:23;;;;;;;5.28;3.85;;;;;16.60;100778.00;;;;5073032;28;20195;-82
2021/10/29 00:19:51;;;;;;;5.43;3.80;;;;;16.60;100778.00;;;;5069067;28;20272;-81
2021/10/29 00:22:18;;;;;;;5.00;4.15;;;;;16.60;100785.00;;;;5068672;28;20198;-82
2021/10/29 00:24:45;;;;;;;5.25;3.95;;;;;16.50;100768.00;;;;5068839;28;20195;-82
2021/10/29 00:27:13;;;;;;;6.15;4.22;;;;;16.50;100770.00;;;;5076524;28;20214;-82
2021/10/29 00:29:41;;;;;;;4.20;3.47;;;;;16.50;100772.00;;;;5076515;28;20199;-82
2021/10/29 00:32:09;;;;;;;7.03;4.47;;;;;16.50;100765.00;;;;5072281;28;20197;-82
2021/10/29 00:34:36;;;;;;;5.93;3.83;;;;;16.40;100764.00;;;;5077142;28;20199;-81
2021/10/29 00:37:04;;;;;;;6.03;4.45;;;;;16.40;100767.00;;;;5067487;28;20221;-82
2021/10/29 00:39:31;;;;;;;5.00;3.90;;;;;16.40;100765.00;;;;5078796;28;20218;-81
2021/10/29 00:41:59;;;;;;;5.50;4.75;;;;;16.40;100760.00;;;;5068182;28;20202;-81
2021/10/29 00:44:28;;;;;;;6.63;4.72;;;;;16.30;100763.00;;;;5068777;28;20668;-82
2021/10/29 00:46:56;;;;;;;6.28;4.13;;;;;16.30;100752.00;;;;5072681;28;20194;-81
2021/10/29 00:49:24;;;;;;;6.68;4.30;;;;;16.30;100755.00;;;;5073972;28;20198;-81
2021/10/29 00:51:51;;;;;;;6.32;4.80;;;;;16.30;100760.00;;;;5087364;28;20206;-82
2021/10/29 00:54:20;;;;;;;6.40;4.38;;;;;16.20;100758.00;;;;5075118;28;20190;-82
2021/10/29 00:56:48;;;;;;;6.22;4.95;;;;;16.20;100756.00;;;;5089189;28;20591;-81
2021/10/29 00:59:17;;;;;;;5.43;4.40;;;;;16.20;100758.00;;;;5088039;28;20779;-82
2021/10/29 01:01:45;;;;;;;6.35;4.40;;;;;16.20;100761.00;;;;5072832;28;20278;-82
2021/10/29 01:04:15;;;;;;;5.60;4.15;;;;;16.10;100761.00;;;;5085032;28;20211;-82
2021/10/29 01:06:44;;;;;;;5.20;4.13;;;;;16.20;100759.00;;;;5088004;28;20222;-81
2021/10/29 01:09:12;;;;;;;6.22;4.18;;;;;16.10;100759.00;;;;5071426;28;20227;-82
2021/10/29 01:11:39;;;;;;;5.88;4.28;;;;;16.10;100759.00;;;;5088253;28;20205;-81
2021/10/29 01:14:07;;;;;;;8.40;4.63;;;;;16.10;100757.00;;;;5071026;28;20195;-82
2021/10/29 01:16:34;;;;;;;6.38;4.38;;;;;16.10;100745.00;;;;5068217;28;20192;-82
2021/10/29 01:19:01;;;;;;;6.50;4.57;;;;;16.10;100743.00;;;;5069022;28;20238;-82
2021/10/29 01:21:30;;;;;;;6.28;4.93;;;;;16.00;100745.00;;;;5070743;28;20203;-82
2021/10/29 01:23:57;;;;;;;7.63;4.78;;;;;16.00;100748.00;;;;5069505;28;20203;-81
2021/10/29 01:26:24;;;;;;;6.88;4.43;;;;;16.10;100736.00;;;;5069026;28;20231;-82
2021/10/29 01:28:52;;;;;;;7.72;5.22;;;;;16.00;100732.00;;;;5087452;28;20595;-82
2021/10/29 01:31:19;;;;;;;6.47;4.47;;;;;16.00;100732.00;;;;5079140;28;20198;-82
2021/10/29 01:33:46;;;;;;;6.40;4.50;;;;;16.00;100733.00;;;;5068706;28;20711;-82
2021/10/29 01:36:14;;;;;;;5.35;4.15;;;;;16.10;100734.00;;;;5074994;28;20191;-82
2021/10/29 01:38:44;;;;;;;6.15;4.53;;;;;16.00;100725.00;;;;5087571;28;20687;-81
2021/10/29 01:41:12;;;;;;;6.35;4.25;;;;;16.00;100717.00;;;;5080874;28;20217;-81
2021/10/29 01:43:40;;;;;;;6.20;4.65;;;;;16.00;100722.00;;;;5085576;28;20190;-82
2021/10/29 01:46:07;;;;;;;6.03;4.32;;;;;16.00;100713.00;;;;5090704;28;20290;-82
2021/10/29 01:48:40;;;;;;;5.95;4.32;;;;;16.00;100711.00;;;;5073876;28;20203;-82
2021/10/29 01:51:07;;;;;;;7.95;4.80;;;;;16.00;100710.00;;;;5074115;28;20199;-82
2021/10/29 01:53:34;;;;;;;5.72;4.32;;;;;16.00;100710.00;;;;5074183;28;20214;-81
2021/10/29 01:56:03;;;;;;;5.95;4.78;;;;;16.00;100703.00;;;;5070224;28;20199;-82
2021/10/29 01:58:30;;;;;;;6.15;4.35;;;;;16.10;100714.00;;;;5070570;28;20677;-80
2021/10/29 02:00:58;;;;;;;6.70;4.32;;;;;16.00;100699.00;;;;5086003;28;20225;-82
2021/10/29 02:03:25;;;;;;;7.18;4.57;;;;;16.00;100705.00;;;;5091070;28;20202;-82
2021/10/29 02:05:52;;;;;;;6.07;4.55;;;;;16.00;100699.00;;;;5081673;28;20191;-81
2021/10/29 02:08:23;;;;;;;6.10;4.47;;;;;16.10;100700.00;;;;5085074;28;20743;-81
2021/10/29 02:10:51;;;;;;;5.15;4.35;;;;;16.10;100687.00;;;;5073894;28;20203;-82
2021/10/29 02:13:20;;;;;;;5.72;4.38;;;;;16.10;100681.00;;;;5070058;28;20196;-82
2021/10/29 02:15:48;;;;;;;7.18;4.78;;;;;16.10;100678.00;;;;5070300;28;20199;-82
2021/10/29 02:18:16;;;;;;;5.22;4.05;;;;;16.10;100684.00;;;;5069820;28;20203;-81
2021/10/29 02:20:44;;;;;;;6.00;3.72;;;;;16.10;100682.00;;;;5070649;28;20246;-81
2021/10/29 02:23:12;;;;;;;5.80;4.68;;;;;16.10;100677.00;;;;5069841;28;20285;-82
2021/10/29 02:25:43;;;;;;;5.97;4.55;;;;;16.10;100676.00;;;;5069967;28;20624;-82
2021/10/29 02:28:11;;;;;;;6.15;4.38;;;;;16.20;100678.00;;;;5074277;28;20294;-81
2021/10/29 02:30:40;;;;;;;7.15;4.70;;;;;16.10;100666.00;;;;5069690;28;20202;-81
2021/10/29 02:33:08;;;;;;;5.65;4.32;;;;;16.20;100661.00;;;;5070276;28;20598;-82
2021/10/29 02:35:35;;;;;;;7.60;4.43;;;;;16.20;100655.00;;;;5069031;28;20195;-82
2021/10/29 02:38:02;;;;;;;5.72;3.90;;;;;16.20;100663.00;;;;5069475;28;20195;-82
2021/10/29 02:40:30;;;;;;;5.50;4.55;;;;;16.20;100650.00;;;;5069618;28;20616;-81
2021/10/29 02:42:58;;;;;;;6.47;4.88;;;;;16.20;100651.00;;;;5069432;28;20203;-82
2021/10/29 02:45:25;;;;;;;11.27;4.20;;;;;16.20;100651.00;;;;5070111;28;20206;-82
2021/10/29 02:47:54;;;;;;;6.63;4.60;;;;;16.20;100648.00;;;;5069496;28;20195;-82
2021/10/29 02:50:23;;;;;;;7.05;4.43;;;;;16.20;100651.00;;;;5069792;28;20183;-81
2021/10/29 02:52:51;;;;;;;6.30;3.95;;;;;16.30;100652.00;;;;5068992;28;20203;-81
2021/10/29 02:55:20;;;;;;;6.40;4.55;;;;;16.20;100652.00;;;;5069469;28;20206;-82
2021/10/29 02:57:48;;;;;;;5.93;3.92;;;;;16.30;100648.00;;;;5069510;28;20199;-82
2021/10/29 03:00:17;;;;;;;6.13;4.85;;;;;16.30;100644.00;;;;5068618;28;20230;-82
2021/10/29 03:02:45;;;;;;;5.28;4.32;;;;;16.30;100649.00;;;;5071646;28;20194;-82
2021/10/29 03:05:16;;;;;;;6.07;4.28;;;;;16.30;100639.00;;;;5069179;28;20272;-82
2021/10/29 03:07:43;;;;;;;5.57;4.53;;;;;16.30;100643.00;;;;5069305;28;20250;-81
2021/10/29 03:10:12;;;;;;;7.15;4.70;;;;;16.30;100640.00;;;;5072533;28;20530;-83
2021/10/29 03:12:40;;;;;;;7.28;4.43;;;;;16.30;100646.00;;;;5069342;28;20195;-82
2021/10/29 03:15:09;;;;;;;6.03;4.68;;;;;16.30;100648.00;;;;5069687;28;20191;-82
2021/10/29 03:17:37;;;;;;;6.85;5.28;;;;;16.40;100642.00;;;;5084466;28;20694;-82
2021/10/29 03:20:07;;;;;;;5.43;4.60;;;;;16.30;100636.00;;;;5070252;28;20885;-81
2021/10/29 03:22:35;;;;;;;6.40;4.30;;;;;16.30;100636.00;;;;5078679;28;20198;-81
2021/10/29 03:25:03;;;;;;;4.93;4.03;;;;;16.40;100637.00;;;;5086363;28;20194;-83
2021/10/29 03:27:30;;;;;;;6.60;4.85;;;;;16.40;100637.00;;;;5080865;28;20223;-82
2021/10/29 03:29:58;;;;;;;5.22;4.00;;;;;16.40;100634.00;;;;5069091;28;20661;-82
2021/10/29 03:32:25;;;;;;;6.78;4.38;;;;;16.40;100638.00;;;;5067406;28;20633;-82
2021/10/29 03:34:53;;;;;;;5.78;3.83;;;;;16.40;100630.00;;;;5076660;28;20229;-82
2021/10/29 03:37:45;;;;;;;4.40;3.45;;;;;16.40;100633.00;;;;5080018;28;20199;-82
2021/10/29 03:40:17;;;;;;;4.70;3.65;;;;;16.40;100624.00;;;;5069095;28;20268;-83
2021/10/29 03:42:51;;;;;;;5.50;4.50;;;;;16.40;100638.00;;;;5079212;28;20569;-82
2021/10/29 03:45:19;;;;;;;5.75;4.60;;;;;16.40;100635.00;;;;5076784;28;20203;-83
2021/10/29 03:47:51;;;;;;;4.93;3.95;;;;;16.40;100636.00;;;;5068321;28;20194;-82
2021/10/29 03:50:22;;;;;;;7.50;3.75;;;;;16.40;100635.00;;;;5081772;28;20186;-82
2021/10/29 03:52:56;;;;;;;5.50;4.20;;;;;16.40;100635.00;;;;5075128;28;20194;-82
2021/10/29 03:55:32;;;;;;;6.85;4.25;;;;;16.40;100635.00;;;;5076165;28;20634;-82
2021/10/29 03:57:59;;;;;;;6.32;3.83;;;;;16.40;100625.00;;;;5082016;28;20747;-82
2021/10/29 04:00:29;;;;;;;4.18;3.33;;;;;16.40;100627.00;;;;5087719;28;20226;-82
2021/10/29 04:02:59;;;;;;;5.20;3.92;;;;;16.40;100627.00;;;;5068350;28;20662;-82
2021/10/29 04:05:27;;;;;;;5.13;3.88;;;;;16.40;100630.00;;;;5069689;28;20210;-82
2021/10/29 04:07:55;;;;;;;5.18;3.63;;;;;16.40;100619.00;;;;5067865;28;20218;-82
2021/10/29 04:10:26;;;;;;;4.78;3.80;;;;;16.40;100620.00;;;;5069455;28;20215;-82
2021/10/29 04:12:54;;;;;;;5.13;4.03;;;;;16.40;100614.00;;;;5068290;28;20199;-82
2021/10/29 04:15:21;;;;;;;5.50;4.18;;;;;16.40;100617.00;;;;5069914;28;20202;-82
2021/10/29 04:17:49;;;;;;;5.53;3.60;;;;;16.30;100603.00;;;;5078372;28;20665;-83
2021/10/29 04:20:17;;;;;;;5.80;4.05;;;;;16.30;100603.00;;;;5087212;28;20308;-83
2021/10/29 04:22:44;;;;;;;4.68;3.97;;;;;16.30;100598.00;;;;5071336;28;20194;-82
2021/10/29 04:25:12;;;;;;;4.93;4.07;;;;;16.30;100597.00;;;;5075438;28;20194;-83
2021/10/29 04:27:45;;;;;;;4.75;3.72;;;;;16.30;100608.00;;;;5074651;28;20318;-82
2021/10/29 04:30:15;;;;;;;5.13;3.70;;;;;16.30;100596.00;;;;5068231;28;20195;-82
2021/10/29 04:32:43;;;;;;;4.93;3.83;;;;;16.30;100604.00;;;;5068038;28;20195;-83
2021/10/29 04:35:11;;;;;;;4.40;3.47;;;;;16.30;100596.00;;;;5068106;28;20191;-82
2021/10/29 04:37:40;;;;;;;5.70;4.03;;;;;16.30;100597.00;;;;5068549;28;20218;-83
2021/10/29 04:40:09;;;;;;;4.65;3.80;;;;;16.30;100582.00;;;;5067900;28;20222;-83
2021/10/29 04:42:36;;;;;;;5.40;3.80;;;;;16.30;100583.00;;;;5068165;28;20570;-82
2021/10/29 04:45:06;;;;;;;7.63;4.07;;;;;16.30;100583.00;;;;5074080;28;20195;-82
2021/10/29 04:47:34;;;;;;;5.50;4.18;;;;;16.30;100580.00;;;;5067909;28;20191;-83
2021/10/29 04:50:01;;;;;;;6.53;3.63;;;;;16.30;100582.00;;;;5083225;28;20535;-82
2021/10/29 04:52:28;;;;;;;5.50;4.00;;;;;16.30;100575.00;;;;5084065;28;20191;-83
2021/10/29 04:54:56;;;;;;;5.88;4.20;;;;;16.30;100582.00;;;;5075197;28;20195;-82
2021/10/29 04:57:23;;;;;;;4.40;3.67;;;;;16.30;100573.00;;;;5071661;28;20195;-83
2021/10/29 04:59:50;;;;;;;9.10;4.45;;;;;16.30;100577.00;;;;5074905;28;20194;-82
2021/10/29 05:02:19;;;;;;;4.72;3.85;;;;;16.20;100577.00;;;;5066563;28;20198;-82
2021/10/29 05:04:46;;;;;;;5.22;3.90;;;;;16.20;100580.00;;;;5067051;28;20214;-82
2021/10/29 05:07:13;;;;;;;4.60;3.55;;;;;16.20;100576.00;;;;5066162;28;20217;-83
2021/10/29 05:09:41;;;;;;;6.18;4.18;;;;;16.20;100579.00;;;;5069684;28;20195;-82
2021/10/29 05:12:08;;;;;;;5.15;3.80;;;;;16.20;100575.00;;;;5081949;28;20666;-82
2021/10/29 05:14:36;;;;;;;7.72;4.63;;;;;16.20;100566.00;;;;5092009;28;20684;-84
2021/10/29 05:17:03;;;;;;;6.22;3.60;;;;;16.20;100563.00;;;;5078469;28;20669;-80
2021/10/29 05:19:32;;;;;;;5.20;3.85;;;;;16.20;100560.00;;;;5071152;28;20202;-79
2021/10/29 05:21:59;;;;;;;5.70;3.75;;;;;16.20;100557.00;;;;5072711;28;20215;-80
2021/10/29 05:24:26;;;;;;;4.72;3.60;;;;;16.30;100553.00;;;;5072309;28;20202;-82
2021/10/29 05:26:53;;;;;;;4.95;3.63;;;;;16.20;100553.00;;;;5072658;28;20227;-82
2021/10/29 05:29:21;;;;;;;7.63;4.45;;;;;16.20;100553.00;;;;5075754;28;20198;-81
2021/10/29 05:31:48;;;;;;;4.78;4.00;;;;;16.20;100554.00;;;;5082228;28;20195;-81
2021/10/29 05:34:15;;;;;;;4.18;3.63;;;;;16.20;100555.00;;;;5075350;28;20719;-79
2021/10/29 05:36:44;;;;;;;5.10;3.70;;;;;16.20;100547.00;;;;5083881;28;20198;-81
2021/10/29 05:39:12;;;;;;;5.63;3.40;;;;;16.30;100556.00;;;;5088980;28;20268;-82
2021/10/29 05:41:45;;;;;;;3.15;2.85;;;;;16.30;100542.00;;;;5087731;28;20253;-82
2021/10/29 05:44:13;;;;;;;4.53;3.20;;;;;16.30;100545.00;;;;5088943;28;20198;-81
2021/10/29 05:46:42;;;;;;;4.00;3.55;;;;;16.20;100540.00;;;;5077739;28;20202;-81
2021/10/29 05:49:12;;;;;;;6.30;4.55;;;;;16.20;100543.00;;;;5083242;28;20685;-80
2021/10/29 05:51:43;;;;;;;5.13;3.45;;;;;16.30;100548.00;;;;5082003;28;20634;-80
2021/10/29 05:54:24;;;;;;;6.28;4.05;;;;;16.20;100555.00;;;;5070673;28;20574;-81
2021/10/29 05:56:51;;;;;;;4.50;2.90;;;;;16.30;100555.00;;;;5080561;28;20202;-77
2021/10/29 05:59:18;;;;;;;5.95;3.55;;;;;16.30;100552.00;;;;5081958;28;20656;-79
2021/10/29 06:01:45;;;;;;;7.05;3.70;;;;;16.30;100545.00;;;;5075188;28;20229;-79
2021/10/29 06:04:13;;;;;;;4.95;3.35;;;;;16.30;100547.00;;;;5087451;28;20198;-79
2021/10/29 06:06:40;;;;;;;4.95;3.28;;;;;16.30;100545.00;;;;5074182;28;20687;-81
2021/10/29 06:09:07;;;;;;;3.65;3.25;;;;;16.30;100549.00;;;;5078439;28;20205;-80
2021/10/29 06:11:36;;;;;;;4.75;3.20;;;;;16.20;100545.00;;;;5089224;28;20289;-79
2021/10/29 06:14:04;;;;;;;5.05;3.92;;;;;16.30;100553.00;;;;5069530;28;20202;-79
2021/10/29 06:16:31;;;;;;;7.85;3.90;;;;;16.30;100548.00;;;;5069864;28;20206;-79
2021/10/29 06:18:58;;;;;;;6.18;3.80;;;;;16.30;100546.00;;;;5069180;28;20191;-81
2021/10/29 06:21:33;;;;;;;5.15;3.95;;;;;16.30;100544.00;;;;5076864;28;20198;-79
2021/10/29 06:24:02;;;;;;;4.68;3.38;;;;;16.30;100547.00;;;;5080901;28;20863;-80
2021/10/29 06:26:39;;;;;;;5.13;3.22;;;;;16.20;100552.00;;;;5071852;28;20254;-80
2021/10/29 06:29:08;;;;;;;6.50;3.63;;;;;16.20;100553.00;;;;5073682;28;20206;-80
2021/10/29 06:31:36;;;;;;;4.50;3.22;;;;;16.20;100551.00;;;;5072891;28;20218;-81
2021/10/29 06:34:03;;;;;;;4.45;3.67;;;;;16.20;100553.00;;;;5069706;28;20198;-80
2021/10/29 06:36:31;;;;;;;6.65;3.90;;;;;16.20;100546.00;;;;5073476;28;20210;-80
2021/10/29 06:38:59;;;;;;;4.72;3.65;;;;;16.20;100545.00;;;;5070766;28;20198;-80
2021/10/29 06:41:27;;;;;;;8.38;3.55;;;;;16.20;100539.00;;;;5074457;28;20796;-79
2021/10/29 06:44:05;;;;;;;5.75;3.97;;;;;16.20;100543.00;;;;5072689;28;20199;-80
2021/10/29 06:46:41;;;;;;;4.35;3.40;;;;;16.20;100544.00;;;;5070503;28;20218;-79
2021/10/29 06:49:15;;;;;;;5.57;3.53;;;;;16.30;100546.00;;;;5070095;28;20293;-80
2021/10/29 07:00:07;;;;;;;5.10;3.45;;;;;16.30;100537.00;;;;5079149;28;20209;-81
2021/10/29 07:03:09;;;;;;;18.15;4.20;;;;;16.20;100532.00;;;;5070999;28;20611;-81
2021/10/29 07:41:38;;;;;;;6.97;3.85;;;;;16.50;100533.00;;;;5069844;28;20267;-82
2021/10/29 07:44:13;;;;;;;4.28;3.67;;;;;16.60;100534.00;;;;5083472;28;20313;-82
2021/10/29 07:46:40;;;;;;;4.95;3.83;;;;;16.60;100528.00;;;;5066695;28;20289;-82
2021/10/29 07:49:08;;;;;;;8.02;4.13;;;;;16.70;100531.00;;;;5070580;28;20210;-80
2021/10/29 07:51:38;;;;;;;4.40;3.83;;;;;16.70;100522.00;;;;5068963;28;20223;-81
2021/10/29 07:54:06;;;;;;;5.15;3.80;;;;;16.80;100520.00;;;;5080613;28;20205;-81
2021/10/29 07:56:33;;;;;;;4.88;3.40;;;;;16.80;100529.00;;;;5076811;28;20198;-82
2021/10/29 07:59:01;;;;;;;5.57;4.28;;;;;16.90;100525.00;;;;5070016;28;20229;-81
2021/10/29 08:01:28;;;;;;;4.63;3.78;;;;;16.90;100522.00;;;;5068794;28;20719;-82
2021/10/29 08:03:55;;;;;;;6.97;4.32;;;;;17.00;100521.00;;;;5071597;28;20668;-81
2021/10/29 08:06:22;;;;;;;4.15;3.22;;;;;17.00;100522.00;;;;5079645;28;20198;-82
2021/10/29 08:08:51;;;;;;;4.63;3.95;;;;;17.10;100520.00;;;;5072573;28;20221;-82
2021/10/29 08:11:18;;;;;;;4.38;3.47;;;;;17.10;100513.00;;;;5076036;28;20226;-80
2021/10/29 08:13:46;;;;;;;3.67;3.08;;;;;17.10;100526.00;;;;5071449;28;20199;-83
2021/10/29 08:16:13;;;;;;;5.88;4.15;;;;;17.20;100514.00;;;;5075117;28;20191;-81
2021/10/29 08:18:44;;;;;;;5.95;4.10;;;;;17.20;100512.00;;;;5080942;28;20198;-81
2021/10/29 08:21:13;;;;;;;5.40;3.97;;;;;17.30;100515.00;;;;5071968;28;20194;-81
2021/10/29 08:23:41;;;;;;;4.22;3.63;;;;;17.30;100517.00;;;;5067709;28;20206;-82
2021/10/29 08:26:11;;;;;;;5.30;4.18;;;;;17.30;100513.00;;;;5070105;28;20865;-81
2021/10/29 08:28:39;;;;;;;5.45;4.15;;;;;17.40;100508.00;;;;5071456;28;20214;-82
2021/10/29 08:31:06;;;;;;;5.05;4.10;;;;;17.40;100507.00;;;;5072218;28;20229;-81
2021/10/29 08:33:33;;;;;;;9.30;4.00;;;;;17.50;100512.00;;;;5069418;28;21462;-80
2021/10/29 08:36:02;;;;;;;5.28;3.75;;;;;17.50;100513.00;;;;5075314;28;20206;-80
2021/10/29 08:38:30;;;;;;;10.38;4.10;;;;;17.60;100503.00;;;;5067925;28;20191;-81
2021/10/29 08:40:57;;;;;;;6.57;4.10;;;;;17.60;100504.00;;;;5068378;28;20237;-81
2021/10/29 08:43:26;;;;;;;4.15;3.42;;;;;17.70;100498.00;;;;5078826;28;20197;-81
2021/10/29 08:45:53;;;;;;;4.93;3.92;;;;;17.70;100500.00;;;;5075457;28;20226;-80
2021/10/29 08:48:22;;;;;;;4.45;3.53;;;;;17.80;100490.00;;;;5084335;28;20198;-80
2021/10/29 08:50:49;;;;;;;5.55;3.60;;;;;17.80;100495.00;;;;5082590;28;20719;-80
2021/10/29 08:53:16;;;;;;;4.53;3.85;;;;;17.90;100488.00;;;;5075358;28;20194;-80
2021/10/29 08:55:44;;;;;;;5.05;4.05;;;;;17.90;100485.00;;;;5076387;28;20203;-80
2021/10/29 08:58:11;;;;;;;4.70;3.53;;;;;18.00;100482.00;;;;5073032;28;20206;-80
2021/10/29 09:00:43;;;;;;;5.05;3.90;;;;;18.00;100470.00;;;;5083452;28;20712;-81
2021/10/29 09:03:25;;;;;;;6.47;4.63;;;;;18.00;100473.00;;;;5073678;28;20226;-81
2021/10/29 09:06:03;;;;;;;6.30;3.55;;;;;18.10;100467.00;;;;5079208;28;20190;-81
2021/10/29 09:08:56;;;;;;;4.43;3.08;;;;;18.10;100459.00;;;;5078487;28;20210;-80
2021/10/29 09:17:11;;;;;;;5.30;3.88;;;;;18.40;100454.00;;;;5079347;28;20334;-82
2021/10/29 09:31:27;;;;;;;4.90;3.72;;;;;18.70;100452.00;;;;5076065;28;20201;-82
2021/10/29 09:33:59;;;;;;;3.88;3.17;;;;;18.90;100441.00;;;;5073983;28;20206;-81
2021/10/29 09:36:29;;;;;;;6.05;3.70;;;;;19.00;100442.00;;;;5070309;28;20757;-81
2021/10/29 09:39:03;;;;;;;4.28;3.47;;;;;19.10;100441.00;;;;5078047;28;20190;-83
2021/10/29 09:41:31;;;;;;;9.15;4.43;;;;;19.30;100424.00;;;;5086730;28;20294;-81
2021/10/29 09:44:00;;;;;;;3.78;3.08;;;;;19.30;100432.00;;;;5071212;28;20210;-81
2021/10/29 09:46:47;;;;;;;5.47;3.30;;;;;19.40;100432.00;;;;5081944;28;20200;-82
2021/10/29 09:49:21;;;;;;;3.58;3.17;;;;;19.60;100412.00;;;;5070257;28;21027;-81
2021/10/29 09:51:54;;;;;;;4.47;3.38;;;;;19.70;100428.00;;;;5083445;28;20217;-81
2021/10/29 09:54:33;;;;;;;6.80;3.53;;;;;19.80;100416.00;;;;5069421;28;20262;-80
2021/10/29 09:57:01;;;;;;;5.57;3.38;;;;;19.90;100425.00;;;;5070661;28;20201;-82
2021/10/29 09:59:30;;;;;;;5.38;3.30;;;;;20.00;100433.00;;;;5075644;28;20205;-81
2021/10/29 10:01:57;;;;;;;5.55;3.80;;;;;20.10;100432.00;;;;5079410;28;20673;-81
2021/10/29 10:04:28;;;;;;;3.72;3.33;;;;;20.20;100434.00;;;;5083466;28;20248;-82
2021/10/29 10:06:55;;;;;;;7.22;3.83;;;;;20.30;100439.00;;;;5076185;28;20215;-81
2021/10/29 10:09:22;;;;;;;3.45;3.15;;;;;20.40;100438.00;;;;5084871;28;20198;-82
2021/10/29 10:11:52;;;;;;;5.50;3.75;;;;;20.50;100441.00;;;;5077231;28;20223;-80
2021/10/29 10:14:19;;;;;;;5.00;3.05;;;;;20.60;100443.00;;;;5072351;28;20203;-80
2021/10/29 10:16:48;;;;;;;6.13;3.30;;;;;20.70;100434.00;;;;5072489;28;20195;-82
2021/10/29 10:19:16;;;;;;;4.75;3.28;;;;;20.80;100427.00;;;;5080061;28;20211;-82
2021/10/29 10:21:50;;;;;;;5.88;3.17;;;;;20.80;100420.00;;;;5079706;28;20194;-82
2021/10/29 10:24:22;;;;;;;4.00;3.30;;;;;20.90;100426.00;;;;5079373;28;20699;-83
2021/10/29 10:29:50;;;;;;;7.65;3.95;;;;;20.90;100417.00;;;;5059544;28;20292;-81
2021/10/29 10:43:39;;;;;;;4.60;3.30;;;;;21.00;100403.00;;;;5081911;28;20210;-82
2021/10/29 10:46:13;;;;;;;3.65;3.33;;;;;21.00;100413.00;;;;5070746;28;20194;-83
2021/10/29 10:48:46;;;;;;;5.78;3.25;;;;;21.00;100401.00;;;;5080029;28;20223;-84
2021/10/29 10:51:52;;;;;;;7.70;3.38;;;;;21.00;100398.00;;;;5085763;28;20295;-84
2021/10/29 10:54:35;;;;;;;3.75;2.88;;;;;21.10;100393.00;;;;5087411;28;20281;-84
2021/10/29 10:57:13;;;;;;;4.28;3.22;;;;;21.10;100392.00;;;;5088235;28;20198;-83
2021/10/29 10:59:49;;;;;;;6.95;3.25;;;;;21.20;100378.00;;;;5075653;28;20243;-84
2021/10/29 11:03:06;;;;;;;4.50;3.33;;;;;21.20;100382.00;;;;5088575;28;20563;-84
2021/10/29 11:05:51;;;;;;;3.85;3.45;;;;;21.20;100369.00;;;;5073629;28;20198;-83
2021/10/29 11:11:19;;;;;;;4.15;3.20;;;;;21.10;100354.00;;;;5088475;28;20206;-83
2021/10/29 11:13:59;;;;;;;5.75;3.08;;;;;21.20;100350.00;;;;5088642;28;20198;-84
2021/10/29 11:16:31;;;;;;;3.15;2.58;;;;;21.30;100333.00;;;;5068845;28;20248;-83
2021/10/29 11:19:09;;;;;;;5.03;3.45;;;;;21.40;100340.00;;;;5084128;28;20206;-83
2021/10/29 11:21:46;;;;;;;5.05;3.38;;;;;21.50;100330.00;;;;5073488;28;20699;-83
2021/10/29 11:24:14;;;;;;;4.20;3.15;;;;;21.60;100332.00;;;;5075630;28;20199;-84
2021/10/29 11:26:46;;;;;;;4.05;2.92;;;;;21.70;100325.00;;;;5074659;28;20238;-83
2021/10/29 11:29:15;;;;;;;5.75;3.20;;;;;21.80;100312.00;;;;5078937;28;20202;-83
2021/10/29 11:31:44;;;;;;;4.57;3.00;;;;;21.90;100311.00;;;;5071937;28;20222;-83
2021/10/29 11:34:14;;;;;;;5.45;3.92;;;;;22.00;100309.00;;;;5083387;28;20217;-84
2021/10/29 11:36:44;;;;;;;4.75;3.58;;;;;22.00;100305.00;;;;5078352;28;20282;-83
2021/10/29 11:39:13;;;;;;;3.80;2.20;;;;;22.10;100306.00;;;;5087799;28;20672;-83
2021/10/29 11:41:44;;;;;;;3.33;2.55;;;;;22.10;100294.00;;;;5074950;28;20198;-83
2021/10/29 11:44:13;;;;;;;4.78;3.03;;;;;22.20;100298.00;;;;5073990;28;20199;-83
2021/10/29 11:46:43;;;;;;;4.68;3.20;;;;;22.20;100291.00;;;;5075458;28;20194;-83
2021/10/29 11:49:11;;;;;;;8.00;2.97;;;;;22.20;100291.00;;;;5072162;28;20195;-82
2021/10/29 11:51:41;;;;;;;3.00;2.53;;;;;22.30;100288.00;;;;5072977;28;20203;-84
2021/10/29 11:54:17;;;;;;;3.33;2.38;;;;;22.30;100280.00;;;;5073500;28;20217;-82
2021/10/29 11:56:56;;;;;;;4.00;2.75;;;;;22.30;100269.00;;;;5087940;28;20203;-83
2021/10/29 12:07:41;;;;;;;3.67;2.35;;;;;22.60;100264.00;;;;5073526;28;20341;-82
2021/10/29 12:10:11;;;;;;;5.60;2.10;;;;;22.60;100262.00;;;;5075620;28;20628;-83
2021/10/29 12:12:42;;;;;;;3.45;1.80;;;;;22.70;100254.00;;;;5070202;28;20222;-82
2021/10/29 12:15:15;;;;;;;3.58;2.38;;;;;22.80;100250.00;;;;5077367;28;20213;-83
2021/10/29 12:17:51;;;;;;;3.15;2.25;;;;;22.90;100252.00;;;;5082677;28;20563;-83
2021/10/29 12:20:22;;;;;;;2.58;2.00;;;;;22.90;100260.00;;;;5074408;28;20191;-82
2021/10/29 12:22:54;;;;;;;3.80;2.03;;;;;23.00;100252.00;;;;5080300;28;20660;-84
2021/10/29 12:25:28;;;;;;;5.63;2.22;;;;;23.10;100251.00;;;;5078164;28;20281;-83
2021/10/29 12:28:02;;;;;;;4.60;2.03;;;;;23.10;100242.00;;;;5078032;28;20222;-84
2021/10/29 12:30:33;;;;;;;4.05;2.33;;;;;23.20;100246.00;;;;5070337;28;20198;-82
2021/10/29 13:03:47;;;;;;;2.83;2.10;;;;;26.00;100193.00;;;;5073923;28;20694;-84
2021/10/29 13:06:18;;;;;;;2.47;1.83;;;;;26.50;100199.00;;;;5087631;28;20547;-84
2021/10/29 13:08:50;;;;;;;4.80;2.22;;;;;27.10;100191.00;;;;5076132;28;20211;-84
2021/10/29 13:11:20;;;;;;;2.03;1.42;;;;;27.60;100190.00;;;;5084213;28;20272;-83
2021/10/29 13:13:52;;;;;;;2.72;2.22;;;;;28.00;100185.00;;;;5072933;28;20280;-83
2021/10/29 13:16:21;;;;;;;2.20;1.80;;;;;28.30;100199.00;;;;5080320;28;20248;-83
2021/10/29 13:24:38;;;;;;;2.75;1.65;;;;;29.50;100205.00;;;;5072587;28;20403;-83
2021/10/29 13:35:29;;;;;;;2.58;1.60;;;;;30.80;100199.00;;;;5078909;28;20218;-82
2021/10/29 13:51:45;;;;;;;4.43;1.92;;;;;32.10;100197.00;;;;5077059;28;20197;-83
2021/10/29 13:54:18;;;;;;;2.25;1.75;;;;;32.20;100202.00;;;;5085295;28;20253;-83
2021/10/29 13:57:07;;;;;;;1.90;1.58;;;;;32.30;100190.00;;;;5083570;28;20221;-83
2021/10/29 13:59:48;;;;;;;2.72;1.52;;;;;32.10;100193.00;;;;5086979;28;20251;-83
2021/10/29 14:02:33;;;;;;;2.15;1.40;;;;;31.70;100195.00;;;;5090011;28;20650;-82
2021/10/29 14:24:32;;;;;;;2.50;1.50;;;;;27.90;100200.00;;;;5074313;28;20212;-83
2021/10/29 14:29:47;;;;;;;3.97;1.90;;;;;27.20;100200.00;;;;5077154;28;20201;-83
2021/10/29 14:32:19;;;;;;;1.90;1.70;;;;;26.90;100213.00;;;;5078459;28;20202;-80
2021/10/29 14:34:51;;;;;;;2.45;1.60;;;;;26.60;100208.00;;;;5072891;28;20234;-82
2021/10/29 14:37:27;;;;;;;3.10;1.65;;;;;26.30;100209.00;;;;5081247;28;20199;-81
2021/10/29 14:40:00;;;;;;;2.20;1.65;;;;;26.10;100210.00;;;;5074684;28;20203;-82
2021/10/29 14:42:32;;;;;;;2.33;1.58;;;;;25.90;100205.00;;;;5073477;28;20627;-81
2021/10/29 14:45:03;;;;;;;2.63;1.80;;;;;25.70;100211.00;;;;5080988;28;20222;-81
2021/10/29 14:47:42;;;;;;;1.73;1.42;;;;;25.50;100220.00;;;;5070885;28;20602;-82
2021/10/29 14:50:21;;;;;;;2.72;1.70;;;;;25.30;100219.00;;;;5070258;28;20256;-81
2021/10/29 15:01:26;;;;;;;3.53;1.67;;;;;24.60;100202.00;;;;5073585;28;20240;-80
2021/10/29 15:04:19;;;;;;;2.55;1.50;;;;;24.50;100208.00;;;;5070000;28;20596;-80
2021/10/29 15:18:16;;;;;;;3.17;1.92;;;;;24.00;100210.00;;;;5072381;28;20206;-82
2021/10/29 15:29:07;;;;;;;2.60;1.80;;;;;23.60;100210.00;;;;5073609;28;20210;-83
2021/10/29 15:31:51;;;;;;;2.70;1.67;;;;;23.60;100208.00;;;;5076013;28;20210;-81
2021/10/29 15:42:44;;;;;;;2.15;1.60;;;;;23.30;100217.00;;;;5075673;28;20280;-81
2021/10/29 15:45:16;;;;;;;2.63;1.42;;;;;23.20;100219.00;;;;5074578;28;20198;-82
2021/10/29 15:47:46;;;;;;;4.03;1.67;;;;;23.20;100218.00;;;;5076417;28;20804;-82